createdAt,value
2023-01-10T00:09:36.802Z,56.30
2023-01-10T00:19:38.827Z,59.23
2023-01-10T00:29:43.573Z,57.27
2023-01-10T00:39:48.034Z,57.67
2023-01-10T00:49:50.121Z,49.57
2023-01-10T00:59:52.306Z,57.17
2023-01-10T01:10:12.907Z,57.57
2023-01-10T01:20:18.094Z,58.00
2023-01-10T01:30:20.131Z,59.93
2023-01-10T01:40:24.854Z,62.57
2023-01-10T01:50:35.074Z,63.77
2023-01-10T02:00:42.505Z,61.13
2023-01-10T02:10:49.066Z,66.13
2023-01-10T02:21:19.615Z,67.03
2023-01-10T02:31:30.983Z,71.53
2023-01-10T02:41:45.706Z,75.53
2023-01-10T02:51:50.076Z,67.27
2023-01-10T03:02:13.825Z,65.67
2023-01-10T03:12:25.033Z,59.97
2023-01-10T03:22:29.398Z,59.83
2023-01-10T03:32:36.672Z,62.30
2023-01-10T03:43:12.807Z,58.03
2023-01-10T03:53:20.591Z,56.13
2023-01-10T04:03:23.519Z,57.27
2023-01-10T04:13:25.547Z,64.53
2023-01-10T04:23:30.020Z,57.63
2023-01-10T04:33:34.374Z,57.73
2023-01-10T04:43:39.033Z,57.13
2023-01-10T04:53:41.706Z,69.70
2023-01-10T05:03:44.294Z,65.90
2023-01-10T05:13:48.064Z,70.93
2023-01-10T05:23:53.501Z,59.13
2023-01-10T05:33:55.563Z,60.60
2023-01-10T05:43:59.993Z,70.10
2023-01-10T05:54:02.066Z,59.30
2023-01-10T06:04:06.324Z,71.13
2023-01-10T06:14:08.454Z,68.73
2023-01-10T06:24:12.603Z,64.00
2023-01-10T06:34:20.272Z,58.57
2023-01-10T06:44:22.415Z,67.33
2023-01-10T06:54:29.129Z,68.43
2023-01-10T07:04:34.264Z,59.13
2023-01-10T07:14:36.401Z,60.07
2023-01-10T07:24:40.794Z,57.53
2023-01-10T07:34:45.485Z,44.07
2023-01-10T07:44:49.474Z,59.10
2023-01-10T07:54:56.335Z,55.43
2023-01-10T08:05:00.914Z,55.53
2023-01-10T08:15:08.565Z,48.90
2023-01-10T08:25:13.276Z,52.23
2023-01-10T08:35:18.550Z,53.37
2023-01-10T08:45:24.454Z,48.90
2023-01-10T08:55:27.371Z,45.63
2023-01-10T09:05:31.407Z,42.80
2023-01-10T09:15:35.996Z,46.53
2023-01-10T09:25:38.858Z,40.67
2023-01-10T09:35:46.267Z,38.80
2023-01-10T09:46:08.724Z,41.97
2023-01-10T09:56:16.220Z,43.77
2023-01-10T10:06:20.943Z,43.20
2023-01-10T10:16:28.536Z,44.00
2023-01-10T10:26:42.607Z,33.27
2023-01-10T10:36:53.480Z,37.07
2023-01-10T10:46:58.262Z,43.27
2023-01-10T10:57:00.322Z,40.13
2023-01-10T11:07:07.599Z,41.83
2023-01-10T11:17:27.395Z,39.27
2023-01-10T11:27:32.394Z,41.53
2023-01-10T11:37:36.226Z,38.60
2023-01-10T11:47:45.226Z,35.80
2023-01-10T11:57:59.237Z,33.60
2023-01-10T12:08:06.896Z,38.20
2023-01-10T12:18:11.972Z,35.67
2023-01-10T12:28:23.014Z,28.30
2023-01-10T12:38:59.874Z,31.73
2023-01-10T12:49:26.716Z,32.33
2023-01-10T12:59:38.497Z,40.57
2023-01-10T13:09:44.431Z,31.23
2023-01-10T13:20:24.608Z,31.73
2023-01-10T13:30:37.796Z,34.00
2023-01-10T13:41:02.220Z,35.33
2023-01-10T13:51:21.101Z,31.67
2023-01-10T14:01:44.727Z,35.37
2023-01-10T14:12:23.003Z,31.57
2023-01-10T14:22:31.349Z,33.63
2023-01-10T14:32:41.527Z,28.13
2023-01-10T14:42:49.956Z,27.67
2023-01-10T14:52:54.970Z,24.17
2023-01-10T15:03:02.991Z,28.43
2023-01-10T15:13:06.026Z,27.03
2023-01-10T15:23:14.623Z,24.47
2023-01-10T15:33:29.417Z,21.93
2023-01-10T15:43:36.917Z,25.57
2023-01-10T15:54:06.338Z,23.57
2023-01-10T16:04:15.306Z,28.13
2023-01-10T16:14:23.127Z,29.40
2023-01-10T16:24:26.887Z,33.37
2023-01-10T16:34:29.022Z,30.60
2023-01-10T16:44:44.496Z,35.33
2023-01-10T16:54:51.314Z,33.90
2023-01-10T17:04:59.579Z,38.83
2023-01-10T17:15:08.665Z,35.90
2023-01-10T17:25:17.592Z,32.43
2023-01-10T17:35:22.851Z,39.00
2023-01-10T17:45:25.249Z,33.13
2023-01-10T17:55:28.903Z,31.40
2023-01-10T18:05:32.884Z,35.13
2023-01-10T18:15:37.179Z,31.77
2023-01-10T18:25:53.110Z,34.07
2023-01-10T18:35:56.735Z,32.07
2023-01-10T18:46:06.813Z,27.37
2023-01-10T18:56:14.943Z,31.17
2023-01-10T19:06:22.790Z,29.77
2023-01-10T19:16:27.288Z,29.57
2023-01-10T19:26:29.537Z,29.13
2023-01-10T19:36:34.877Z,27.10
2023-01-10T19:46:39.080Z,28.97
2023-01-10T19:56:41.282Z,28.27
2023-01-10T20:06:51.243Z,30.17
2023-01-10T20:16:53.477Z,30.97
2023-01-10T20:26:57.531Z,34.30
2023-01-10T20:37:06.503Z,34.03
2023-01-10T20:47:09.177Z,37.70
2023-01-10T20:57:14.535Z,46.23
2023-01-10T21:07:17.603Z,51.77
2023-01-10T21:17:20.213Z,53.27
2023-01-10T21:27:22.560Z,52.63
2023-01-10T21:37:24.806Z,53.97
2023-01-10T21:47:26.973Z,53.50
2023-01-10T21:57:31.027Z,48.23
2023-01-10T22:07:33.266Z,65.33
2023-01-10T22:17:37.994Z,44.23
2023-01-10T22:27:45.348Z,115.37
2023-01-10T22:37:47.544Z,43.07
2023-01-10T22:47:50.366Z,72.53
2023-01-10T22:57:54.865Z,42.80
2023-01-10T23:07:59.300Z,40.90
2023-01-10T23:18:06.249Z,57.77
2023-01-10T23:28:08.669Z,174.77
2023-01-10T23:38:10.763Z,86.20
2023-01-10T23:48:15.624Z,52.10
2023-01-10T23:58:27.115Z,44.37
